Time;durP1;ratioP1;P1;durP2;ratioP2;P2;SDS_P1;SDS_P2;PMS_P1;PMS_P2;Temp;Humidity;BMP_temperature;BMP_pressure;BME280_temperature;BME280_humidity;BME280_pressure;Samples;Min_cycle;Max_cycle;Signal;HPM_P1;HPM_P2
2022/10/11 04:02:08;;;;;;;7.55;6.85;;;;;;;;;;5151505;22;20439;-87
2022/10/11 04:04:34;;;;;;;11.07;7.40;;;;;;;;;;4955827;28;20421;-88
2022/10/11 04:07:00;;;;;;;11.70;7.10;;;;;;;;;;4957169;28;20397;-87
2022/10/11 04:09:26;;;;;;;7.88;7.15;;;;;;;;;;4960743;28;20397;-86
2022/10/11 04:11:52;;;;;;;9.30;6.97;;;;;;;;;;4970611;28;20392;-88
2022/10/11 04:14:18;;;;;;;7.68;6.95;;;;;;;;;;4970648;28;20442;-87
2022/10/11 04:16:44;;;;;;;9.35;7.60;;;;;;;;;;4970599;28;20399;-87
2022/10/11 04:19:10;;;;;;;7.90;7.18;;;;;;;;;;4968343;28;20869;-88
2022/10/11 04:21:36;;;;;;;7.83;6.43;;;;;;;;;;4964471;28;20421;-88
2022/10/11 04:24:02;;;;;;;7.93;7.15;;;;;;;;;;4960801;28;20400;-87
2022/10/11 04:26:28;;;;;;;8.00;6.72;;;;;;;;;;4947267;28;20483;-87
2022/10/11 04:28:54;;;;;;;10.47;7.17;;;;;;;;;;4970686;28;20404;-87
2022/10/11 04:31:20;;;;;;;8.13;6.88;;;;;;;;;;4970277;28;20403;-86
2022/10/11 04:33:46;;;;;;;7.13;6.43;;;;;;;;;;4970832;28;20388;-89
2022/10/11 04:36:12;;;;;;;7.40;6.70;;;;;;;;;;4970598;28;20956;-87
2022/10/11 04:38:38;;;;;;;7.83;7.10;;;;;;;;;;4970546;28;20408;-87
2022/10/11 04:41:08;;;;;;;7.53;6.90;;;;;;;;;;4970283;28;20412;-88
2022/10/11 04:43:35;;;;;;;8.38;7.18;;;;;;;;;;4970982;28;20395;-87
2022/10/11 04:46:01;;;;;;;8.85;7.20;;;;;;;;;;4971877;28;20380;-87
2022/10/11 04:48:27;;;;;;;7.25;6.63;;;;;;;;;;4970159;28;20387;-88
2022/10/11 04:50:53;;;;;;;8.68;7.88;;;;;;;;;;4970129;28;20384;-88
2022/10/11 04:53:19;;;;;;;7.82;7.10;;;;;;;;;;4970458;28;20431;-87
2022/10/11 04:55:54;;;;;;;8.10;7.30;;;;;;;;;;4967153;28;20473;-87
2022/10/11 04:58:20;;;;;;;8.27;7.30;;;;;;;;;;4963054;28;20418;-87
2022/10/11 05:00:46;;;;;;;8.50;7.70;;;;;;;;;;4969757;28;20420;-87
2022/10/11 05:03:12;;;;;;;7.82;7.13;;;;;;;;;;4970087;28;20381;-87
2022/10/11 05:05:38;;;;;;;8.63;7.73;;;;;;;;;;4969937;28;20384;-87
2022/10/11 05:08:04;;;;;;;9.73;7.00;;;;;;;;;;4970294;28;20395;-88
2022/10/11 05:10:30;;;;;;;9.10;7.68;;;;;;;;;;4969867;28;20400;-88
2022/10/11 05:12:56;;;;;;;7.18;6.57;;;;;;;;;;4970410;28;20446;-88
2022/10/11 05:15:22;;;;;;;7.57;6.88;;;;;;;;;;4969838;28;20391;-88
2022/10/11 05:17:48;;;;;;;7.40;6.70;;;;;;;;;;4969891;28;20396;-87
2022/10/11 05:20:14;;;;;;;6.85;6.25;;;;;;;;;;4969794;28;20408;-88
2022/10/11 05:22:40;;;;;;;8.48;6.80;;;;;;;;;;4971704;28;20380;-88
2022/10/11 05:25:06;;;;;;;7.43;6.68;;;;;;;;;;4973165;28;20419;-87
2022/10/11 05:27:32;;;;;;;9.20;7.00;;;;;;;;;;4973053;28;20422;-88
2022/10/11 05:29:58;;;;;;;8.23;6.90;;;;;;;;;;4973004;28;20407;-87
2022/10/11 05:32:24;;;;;;;8.02;6.72;;;;;;;;;;4972934;28;20392;-87
2022/10/11 05:34:50;;;;;;;6.57;5.97;;;;;;;;;;4972957;28;20423;-87
2022/10/11 05:37:16;;;;;;;7.10;6.40;;;;;;;;;;4972899;28;20877;-88
2022/10/11 05:39:42;;;;;;;7.10;6.10;;;;;;;;;;4972768;28;20395;-88
2022/10/11 05:42:08;;;;;;;6.20;5.60;;;;;;;;;;4972754;28;20722;-87
2022/10/11 05:44:34;;;;;;;9.88;6.28;;;;;;;;;;4972789;28;20404;-88
2022/10/11 05:47:00;;;;;;;6.50;6.00;;;;;;;;;;4972775;28;20384;-87
2022/10/11 05:49:26;;;;;;;7.28;6.40;;;;;;;;;;4972811;28;20465;-88
2022/10/11 05:51:52;;;;;;;7.97;6.70;;;;;;;;;;4968951;28;20473;-86
2022/10/11 05:54:18;;;;;;;8.85;6.68;;;;;;;;;;4962497;28;20386;-84
2022/10/11 05:56:44;;;;;;;7.90;7.10;;;;;;;;;;4961003;28;20406;-86
2022/10/11 05:59:10;;;;;;;7.13;6.13;;;;;;;;;;4972634;28;20420;-87
2022/10/11 06:01:36;;;;;;;6.95;6.35;;;;;;;;;;4972319;28;20475;-85
2022/10/11 06:04:03;;;;;;;7.35;6.43;;;;;;;;;;4964020;28;20933;-87
2022/10/11 06:06:29;;;;;;;8.07;6.28;;;;;;;;;;4965389;28;20392;-87
2022/10/11 06:08:55;;;;;;;8.68;6.57;;;;;;;;;;4963886;28;20409;-87
2022/10/11 06:11:26;;;;;;;8.52;6.68;;;;;;;;;;4961095;28;20400;-87
2022/10/11 06:13:52;;;;;;;6.22;5.53;;;;;;;;;;4972492;28;20395;-87
2022/10/11 06:16:18;;;;;;;7.00;5.60;;;;;;;;;;4972206;28;20403;-87
2022/10/11 06:18:44;;;;;;;8.13;5.85;;;;;;;;;;4971364;28;20389;-87
2022/10/11 06:21:12;;;;;;;6.57;5.78;;;;;;;;;;4960984;28;20894;-87
2022/10/11 06:23:38;;;;;;;7.18;5.43;;;;;;;;;;4953515;28;20879;-87
2022/10/11 06:26:05;;;;;;;6.57;5.90;;;;;;;;;;4968400;28;20434;-86
2022/10/11 06:28:32;;;;;;;9.65;6.15;;;;;;;;;;4972099;28;20387;-86
2022/10/11 06:30:58;;;;;;;8.93;7.57;;;;;;;;;;4972036;28;20392;-86
2022/10/11 06:33:24;;;;;;;16.57;13.73;;;;;;;;;;4970811;28;20402;-86
2022/10/11 06:35:56;;;;;;;10.90;9.20;;;;;;;;;;4958833;28;20398;-86
2022/10/11 06:38:22;;;;;;;9.15;8.25;;;;;;;;;;4971462;28;20463;-87
2022/10/11 06:40:47;;;;;;;7.70;6.18;;;;;;;;;;4971919;28;20484;-88
2022/10/11 06:43:13;;;;;;;6.53;5.80;;;;;;;;;;4970569;28;20376;-87
2022/10/11 06:45:39;;;;;;;7.10;5.47;;;;;;;;;;4962730;28;20390;-88
2022/10/11 06:48:05;;;;;;;8.13;6.53;;;;;;;;;;4967307;28;20877;-88
2022/10/11 06:50:32;;;;;;;7.35;6.38;;;;;;;;;;4971924;28;20424;-87
2022/10/11 06:52:58;;;;;;;6.70;5.18;;;;;;;;;;4964114;28;20402;-86
2022/10/11 06:55:24;;;;;;;6.57;4.90;;;;;;;;;;4970962;28;20395;-87
2022/10/11 06:57:50;;;;;;;5.60;5.10;;;;;;;;;;4978174;28;20424;-85
2022/10/11 07:00:16;;;;;;;5.30;4.80;;;;;;;;;;4974993;23;20456;-86
2022/10/11 07:02:42;;;;;;;6.23;4.90;;;;;;;;;;5024735;28;20436;-85
2022/10/11 07:05:09;;;;;;;6.75;5.55;;;;;;;;;;5035080;28;20390;-85
2022/10/11 07:07:35;;;;;;;9.48;5.32;;;;;;;;;;5053000;28;20430;-85
2022/10/11 07:10:01;;;;;;;6.75;5.50;;;;;;;;;;5052797;28;20385;-85
2022/10/11 07:12:27;;;;;;;7.00;5.70;;;;;;;;;;5052788;28;20385;-86
2022/10/11 07:14:53;;;;;;;7.38;5.35;;;;;;;;;;5052869;28;20413;-86
2022/10/11 07:17:19;;;;;;;7.85;6.13;;;;;;;;;;5052976;28;20417;-86
2022/10/11 07:19:46;;;;;;;7.82;6.00;;;;;;;;;;5052745;28;20427;-86
2022/10/11 07:22:12;;;;;;;6.68;6.00;;;;;;;;;;5052687;28;20386;-86
2022/10/11 07:24:38;;;;;;;6.45;5.78;;;;;;;;;;5034742;28;20476;-86
2022/10/11 07:27:04;;;;;;;6.75;6.07;;;;;;;;;;5052772;28;20373;-86
2022/10/11 07:29:30;;;;;;;7.97;6.80;;;;;;;;;;5052561;28;20779;-85
2022/10/11 07:31:56;;;;;;;9.97;7.83;;;;;;;;;;5052588;28;20480;-86
2022/10/11 07:34:22;;;;;;;9.57;8.32;;;;;;;;;;5052543;28;20449;-86
2022/10/11 07:36:48;;;;;;;8.30;7.38;;;;;;;;;;5052645;28;20468;-86
2022/10/11 07:39:14;;;;;;;8.63;7.70;;;;;;;;;;5052465;28;20850;-85
2022/10/11 07:41:40;;;;;;;8.90;7.65;;;;;;;;;;5052378;28;20417;-86
2022/10/11 07:44:06;;;;;;;12.13;7.97;;;;;;;;;;5051915;28;20374;-86
2022/10/11 07:46:32;;;;;;;10.10;7.40;;;;;;;;;;5052260;28;20390;-86
2022/10/11 07:48:58;;;;;;;11.20;7.30;;;;;;;;;;5052298;28;20381;-86
2022/10/11 07:51:25;;;;;;;10.00;7.53;;;;;;;;;;5052144;28;20745;-86
2022/10/11 07:53:52;;;;;;;10.68;7.25;;;;;;;;;;5051020;28;20866;-87
2022/10/11 07:56:20;;;;;;;9.37;6.47;;;;;;;;;;5039659;28;20383;-86
2022/10/11 07:58:53;;;;;;;8.65;7.07;;;;;;;;;;5027858;28;20434;-86
2022/10/11 08:01:19;;;;;;;13.52;6.90;;;;;;;;;;5044151;28;20955;-86
2022/10/11 08:03:46;;;;;;;7.85;7.03;;;;;;;;;;5052053;28;20385;-86
2022/10/11 08:06:14;;;;;;;8.77;7.18;;;;;;;;;;5052155;28;20858;-85
2022/10/11 08:08:40;;;;;;;10.52;7.10;;;;;;;;;;5051962;28;20409;-86
2022/10/11 08:11:06;;;;;;;11.60;7.10;;;;;;;;;;5034076;28;21070;-86
2022/10/11 08:13:33;;;;;;;8.88;7.22;;;;;;;;;;5052002;28;20389;-86
2022/10/11 08:15:59;;;;;;;8.07;6.70;;;;;;;;;;5052193;28;20735;-87
2022/10/11 08:18:25;;;;;;;11.20;7.00;;;;;;;;;;5051983;28;20380;-87
2022/10/11 08:20:51;;;;;;;10.23;7.30;;;;;;;;;;5050050;28;20476;-86
2022/10/11 08:23:18;;;;;;;10.05;6.85;;;;;;;;;;5028617;28;20466;-85
2022/10/11 08:25:45;;;;;;;8.60;7.00;;;;;;;;;;5051913;28;20373;-86
2022/10/11 08:28:15;;;;;;;7.30;6.60;;;;;;;;;;5051793;28;20378;-87
2022/10/11 08:30:46;;;;;;;8.00;6.95;;;;;;;;;;5051725;28;20377;-87
2022/10/11 08:33:12;;;;;;;9.73;6.90;;;;;;;;;;5051921;28;20416;-86
2022/10/11 08:35:38;;;;;;;8.03;6.47;;;;;;;;;;5051885;28;20409;-87
2022/10/11 08:38:04;;;;;;;12.15;8.50;;;;;;;;;;5051739;28;20430;-86
2022/10/11 08:40:30;;;;;;;9.68;7.45;;;;;;;;;;5051567;28;20478;-87
2022/10/11 08:42:58;;;;;;;11.13;8.38;;;;;;;;;;5051657;28;20415;-86
2022/10/11 08:45:50;;;;;;;15.43;8.60;;;;;;;;;;5051930;28;20746;-87
2022/10/11 08:48:17;;;;;;;16.88;14.25;;;;;;;;;;5047216;28;20390;-86
2022/10/11 08:50:44;;;;;;;24.25;19.45;;;;;;;;;;5051927;28;20381;-87
2022/10/11 08:53:15;;;;;;;20.60;18.45;;;;;;;;;;5051633;28;20377;-87
2022/10/11 08:55:48;;;;;;;19.48;17.35;;;;;;;;;;5049091;28;20400;-86
2022/10/11 08:58:15;;;;;;;20.10;18.00;;;;;;;;;;5049763;28;20381;-87
2022/10/11 09:00:42;;;;;;;20.85;15.98;;;;;;;;;;5055182;28;20420;-87
2022/10/11 09:03:20;;;;;;;17.67;14.18;;;;;;;;;;5055434;28;20381;-87
2022/10/11 09:05:49;;;;;;;13.25;11.65;;;;;;;;;;5055478;28;20374;-86
2022/10/11 09:08:15;;;;;;;15.73;11.10;;;;;;;;;;5037611;28;20397;-86
2022/10/11 09:10:44;;;;;;;12.38;9.05;;;;;;;;;;5037462;28;20400;-86
2022/10/11 09:13:34;;;;;;;13.30;9.73;;;;;;;;;;5055710;28;20421;-87
2022/10/11 09:16:13;;;;;;;12.45;8.40;;;;;;;;;;5054962;28;20389;-86
2022/10/11 09:18:41;;;;;;;12.25;7.82;;;;;;;;;;5037523;28;20397;-86
2022/10/11 09:21:10;;;;;;;9.23;7.68;;;;;;;;;;5051541;28;20914;-87
2022/10/11 09:23:36;;;;;;;9.90;7.10;;;;;;;;;;5044962;28;20456;-87
2022/10/11 09:26:09;;;;;;;11.30;6.47;;;;;;;;;;5054898;28;20469;-87
2022/10/11 09:28:43;;;;;;;8.02;6.50;;;;;;;;;;5055156;28;20396;-88
2022/10/11 09:31:09;;;;;;;8.68;6.72;;;;;;;;;;5054743;28;20413;-88
2022/10/11 09:33:48;;;;;;;9.70;6.73;;;;;;;;;;5055130;28;20801;-87
2022/10/11 09:36:17;;;;;;;10.55;7.30;;;;;;;;;;5054735;28;20465;-86
2022/10/11 09:39:03;;;;;;;13.70;7.15;;;;;;;;;;5054819;28;20385;-87
2022/10/11 09:41:38;;;;;;;13.45;7.30;;;;;;;;;;5004024;28;20421;-86
2022/10/11 09:44:05;;;;;;;13.43;6.85;;;;;;;;;;5054595;28;20467;-86
2022/10/11 09:46:38;;;;;;;9.07;6.90;;;;;;;;;;5054558;28;20385;-87
2022/10/11 09:49:07;;;;;;;11.48;7.10;;;;;;;;;;5054491;28;20377;-86
2022/10/11 09:51:33;;;;;;;9.40;7.10;;;;;;;;;;5043704;28;20411;-87
2022/10/11 09:54:01;;;;;;;10.27;6.72;;;;;;;;;;5042622;28;20393;-86
2022/10/11 09:56:28;;;;;;;7.70;6.85;;;;;;;;;;5045719;28;20383;-86
2022/10/11 09:59:08;;;;;;;7.90;6.65;;;;;;;;;;5054361;28;20973;-87
2022/10/11 10:01:35;;;;;;;7.30;6.50;;;;;;;;;;5053880;28;20599;-86
2022/10/11 10:04:12;;;;;;;8.00;5.95;;;;;;;;;;5054622;28;20385;-87
2022/10/11 10:06:38;;;;;;;7.20;6.28;;;;;;;;;;5054194;28;20377;-86
2022/10/11 10:09:19;;;;;;;10.48;7.13;;;;;;;;;;5053751;28;20376;-87
2022/10/11 10:11:45;;;;;;;12.17;6.67;;;;;;;;;;5054106;28;20431;-87
2022/10/11 10:14:19;;;;;;;11.18;6.82;;;;;;;;;;5054228;28;20412;-87
2022/10/11 10:16:46;;;;;;;8.90;6.57;;;;;;;;;;5036192;28;20401;-87
2022/10/11 10:19:24;;;;;;;11.07;6.35;;;;;;;;;;5053947;28;20381;-85
2022/10/11 10:21:50;;;;;;;9.77;6.28;;;;;;;;;;5054127;28;20894;-86
2022/10/11 10:24:18;;;;;;;11.10;6.60;;;;;;;;;;5053864;28;20473;-87
2022/10/11 10:27:04;;;;;;;10.95;6.50;;;;;;;;;;5047387;28;20369;-87
2022/10/11 10:29:30;;;;;;;10.77;6.00;;;;;;;;;;5046636;28;20385;-86
2022/10/11 10:31:56;;;;;;;8.52;5.93;;;;;;;;;;5053834;28;20385;-87
2022/10/11 10:34:28;;;;;;;9.52;5.70;;;;;;;;;;5053947;28;20743;-86
2022/10/11 10:36:59;;;;;;;7.13;5.25;;;;;;;;;;5053848;28;20431;-87
2022/10/11 10:39:32;;;;;;;12.80;5.40;;;;;;;;;;5053623;28;20378;-87
2022/10/11 10:41:59;;;;;;;9.60;5.55;;;;;;;;;;5053566;28;20962;-86
2022/10/11 10:44:25;;;;;;;9.98;5.05;;;;;;;;;;5053515;28;20421;-86
2022/10/11 10:47:03;;;;;;;8.63;5.20;;;;;;;;;;5053427;28;20417;-87
2022/10/11 10:49:32;;;;;;;9.40;5.13;;;;;;;;;;5035810;28;20385;-88
2022/10/11 10:52:04;;;;;;;9.88;5.03;;;;;;;;;;5053202;28;20858;-86
2022/10/11 10:54:36;;;;;;;8.73;4.53;;;;;;;;;;5035373;28;20727;-86
2022/10/11 10:57:22;;;;;;;10.77;5.40;;;;;;;;;;5044570;28;20392;-86
2022/10/11 10:59:51;;;;;;;10.05;4.95;;;;;;;;;;5034756;28;20398;-85
2022/10/11 11:02:22;;;;;;;9.32;5.28;;;;;;;;;;5019898;28;20844;-89
2022/10/11 11:05:16;;;;;;;9.48;4.55;;;;;;;;;;5030567;28;20381;-87
2022/10/11 11:07:51;;;;;;;10.37;3.97;;;;;;;;;;4993760;28;20478;-90
2022/10/11 11:10:21;;;;;;;9.32;3.60;;;;;;;;;;5040316;28;20383;-90
2022/10/11 11:12:56;;;;;;;8.32;3.35;;;;;;;;;;5026240;28;20381;-91
2022/10/11 11:15:41;;;;;;;8.27;3.40;;;;;;;;;;5052866;28;20472;-91
2022/10/11 11:18:27;;;;;;;7.13;3.22;;;;;;;;;;5043588;28;20389;-90
2022/10/11 11:21:28;;;;;;;7.20;3.77;;;;;;;;;;5052256;28;20405;-90
2022/10/11 11:23:59;;;;;;;9.43;4.30;;;;;;;;;;4960199;28;20945;-88
2022/10/11 11:26:28;;;;;;;8.10;4.70;;;;;;;;;;5024339;28;20386;-88
2022/10/11 11:29:17;;;;;;;8.18;4.53;;;;;;;;;;5041284;28;20383;-89
2022/10/11 11:31:49;;;;;;;7.45;4.30;;;;;;;;;;4990034;28;20391;-91
2022/10/11 11:34:23;;;;;;;7.68;4.47;;;;;;;;;;5046046;28;20871;-90
2022/10/11 11:36:52;;;;;;;8.93;4.55;;;;;;;;;;5052793;28;20922;-91
2022/10/11 11:39:27;;;;;;;8.55;4.40;;;;;;;;;;5045692;28;20916;-91
2022/10/11 11:42:13;;;;;;;8.52;4.03;;;;;;;;;;5037508;28;20406;-91
2022/10/11 11:44:41;;;;;;;7.30;4.40;;;;;;;;;;5048509;28;20381;-90
2022/10/11 11:47:10;;;;;;;6.95;3.60;;;;;;;;;;5039850;28;20888;-89
2022/10/11 11:49:38;;;;;;;9.57;3.60;;;;;;;;;;5052337;28;20468;-90
2022/10/11 11:52:06;;;;;;;8.13;3.60;;;;;;;;;;5040264;28;20785;-91
2022/10/11 11:54:32;;;;;;;9.15;3.58;;;;;;;;;;5052434;28;20445;-90
2022/10/11 11:57:06;;;;;;;7.45;3.30;;;;;;;;;;5025742;28;20409;-90
2022/10/11 11:59:51;;;;;;;7.40;3.70;;;;;;;;;;5034784;28;20393;-92
2022/10/11 12:02:35;;;;;;;8.45;3.67;;;;;;;;;;5052163;28;20405;-91
2022/10/11 12:05:01;;;;;;;8.23;3.47;;;;;;;;;;5052344;28;20385;-91
2022/10/11 12:07:28;;;;;;;8.33;4.00;;;;;;;;;;5045515;28;20386;-91
2022/10/11 12:10:14;;;;;;;9.68;3.67;;;;;;;;;;5027373;28;20389;-91
2022/10/11 12:12:40;;;;;;;8.33;3.93;;;;;;;;;;5034449;28;20404;-91
2022/10/11 12:15:09;;;;;;;11.32;3.67;;;;;;;;;;5052261;28;20416;-91
2022/10/11 12:17:54;;;;;;;9.48;3.70;;;;;;;;;;5052043;28;20472;-91
2022/10/11 12:20:31;;;;;;;7.53;4.18;;;;;;;;;;5051856;28;20401;-88
2022/10/11 12:22:59;;;;;;;7.15;3.60;;;;;;;;;;5051792;28;20377;-88
2022/10/11 12:25:30;;;;;;;7.37;3.90;;;;;;;;;;5052146;28;20384;-88
2022/10/11 12:27:59;;;;;;;8.23;3.42;;;;;;;;;;5051722;28;20927;-89
2022/10/11 12:30:43;;;;;;;8.82;3.45;;;;;;;;;;5044091;28;20403;-88
2022/10/11 12:33:21;;;;;;;8.60;3.60;;;;;;;;;;5052692;28;20479;-88
2022/10/11 12:35:54;;;;;;;8.13;3.47;;;;;;;;;;5054839;28;20424;-88
2022/10/11 12:38:24;;;;;;;7.50;3.50;;;;;;;;;;5032211;28;20879;-90
2022/10/11 12:40:53;;;;;;;6.90;3.40;;;;;;;;;;5038487;28;20463;-91
2022/10/11 12:43:19;;;;;;;10.70;3.53;;;;;;;;;;5021312;28;20393;-90
2022/10/11 12:45:46;;;;;;;9.38;3.55;;;;;;;;;;5018377;28;20387;-89
2022/10/11 12:48:22;;;;;;;7.15;4.05;;;;;;;;;;5051655;28;20488;-91
2022/10/11 12:51:06;;;;;;;7.18;4.00;;;;;;;;;;5051182;28;20381;-90
2022/10/11 12:53:35;;;;;;;9.93;4.03;;;;;;;;;;5041638;28;20865;-91
2022/10/11 12:56:07;;;;;;;7.50;3.60;;;;;;;;;;5050225;28;20868;-91
2022/10/11 12:58:40;;;;;;;9.13;4.05;;;;;;;;;;5048216;28;20392;-91
2022/10/11 13:01:08;;;;;;;9.93;3.53;;;;;;;;;;5045498;28;20444;-91
2022/10/11 13:03:36;;;;;;;11.57;4.18;;;;;;;;;;5055288;28;20382;-90
2022/10/11 13:06:14;;;;;;;7.90;3.80;;;;;;;;;;5055397;28;20406;-90
2022/10/11 13:08:42;;;;;;;7.43;4.20;;;;;;;;;;5055238;28;20410;-89
2022/10/11 13:11:11;;;;;;;23.88;5.40;;;;;;;;;;5031277;28;21515;-89
2022/10/11 13:13:39;;;;;;;12.27;4.47;;;;;;;;;;5028826;28;20393;-89
2022/10/11 13:16:15;;;;;;;7.18;3.90;;;;;;;;;;5055157;28;20408;-90
2022/10/11 13:18:43;;;;;;;7.35;3.70;;;;;;;;;;5037205;28;20389;-91
2022/10/11 13:21:25;;;;;;;7.47;3.50;;;;;;;;;;5019049;28;20411;-90
2022/10/11 13:23:56;;;;;;;8.93;3.50;;;;;;;;;;5031349;28;20811;-91
2022/10/11 13:26:22;;;;;;;10.67;3.70;;;;;;;;;;5042009;28;20405;-89
2022/10/11 13:28:48;;;;;;;9.32;3.40;;;;;;;;;;5043370;28;20387;-90
2022/10/11 13:31:14;;;;;;;10.55;3.65;;;;;;;;;;5016631;28;20747;-91
2022/10/11 13:33:42;;;;;;;6.97;3.55;;;;;;;;;;5025772;28;20393;-91
2022/10/11 13:36:12;;;;;;;9.13;3.50;;;;;;;;;;5044222;28;20390;-90
2022/10/11 13:38:39;;;;;;;12.20;4.03;;;;;;;;;;5051570;28;20377;-90
2022/10/11 13:41:07;;;;;;;9.00;3.65;;;;;;;;;;5042042;28;20403;-90
2022/10/11 13:43:33;;;;;;;9.38;3.58;;;;;;;;;;5039784;28;20374;-90
2022/10/11 13:46:00;;;;;;;7.75;3.65;;;;;;;;;;5054619;28;20415;-90
2022/10/11 13:48:26;;;;;;;13.50;4.18;;;;;;;;;;5043708;28;20374;-89
2022/10/11 13:51:06;;;;;;;11.82;3.80;;;;;;;;;;5054154;28;20460;-91
2022/10/11 13:53:32;;;;;;;8.30;3.60;;;;;;;;;;5054466;28;20460;-89
2022/10/11 13:56:02;;;;;;;9.68;3.60;;;;;;;;;;5038842;28;20474;-86
2022/10/11 13:58:34;;;;;;;10.20;3.83;;;;;;;;;;5051219;28;20394;-87
2022/10/11 14:01:01;;;;;;;11.45;3.67;;;;;;;;;;5053819;28;20909;-86
2022/10/11 14:03:47;;;;;;;6.32;3.05;;;;;;;;;;5045633;28;20401;-86
2022/10/11 14:06:13;;;;;;;11.18;3.90;;;;;;;;;;5009950;28;20389;-86
2022/10/11 14:08:42;;;;;;;12.02;3.60;;;;;;;;;;5046667;28;20384;-87
2022/10/11 14:11:10;;;;;;;5.43;2.92;;;;;;;;;;5049671;28;20389;-86
2022/10/11 14:13:38;;;;;;;9.23;3.20;;;;;;;;;;5053803;28;20882;-86
2022/10/11 14:16:04;;;;;;;6.97;3.17;;;;;;;;;;5054353;28;20460;-86
2022/10/11 14:18:38;;;;;;;6.73;2.90;;;;;;;;;;5054011;28;20951;-87
2022/10/11 14:21:19;;;;;;;9.27;3.17;;;;;;;;;;5038202;28;20403;-86
2022/10/11 14:23:46;;;;;;;5.47;2.83;;;;;;;;;;5037193;28;20398;-86
2022/10/11 14:26:15;;;;;;;8.25;2.95;;;;;;;;;;5008617;28;20446;-86
2022/10/11 14:28:41;;;;;;;5.43;2.80;;;;;;;;;;5053836;28;20413;-86
2022/10/11 14:31:08;;;;;;;9.02;3.47;;;;;;;;;;5053522;28;20378;-86
2022/10/11 14:33:34;;;;;;;21.55;4.93;;;;;;;;;;5053785;28;20378;-86
2022/10/11 14:36:00;;;;;;;8.82;3.33;;;;;;;;;;5053567;28;20397;-85
2022/10/11 14:38:26;;;;;;;9.45;3.53;;;;;;;;;;5053586;28;20427;-86
2022/10/11 14:40:52;;;;;;;9.02;3.45;;;;;;;;;;5036419;28;20401;-85
2022/10/11 14:43:18;;;;;;;38.70;6.68;;;;;;;;;;5053739;28;20472;-86
2022/10/11 14:45:44;;;;;;;7.97;3.40;;;;;;;;;;5053499;28;20851;-85
2022/10/11 14:48:10;;;;;;;14.45;3.58;;;;;;;;;;5053327;28;20381;-85
2022/10/11 14:50:37;;;;;;;11.50;3.53;;;;;;;;;;5053393;28;20747;-85
2022/10/11 14:53:04;;;;;;;7.95;3.40;;;;;;;;;;5053255;28;20712;-85
2022/10/11 14:55:31;;;;;;;11.52;3.65;;;;;;;;;;5053316;28;20424;-86
2022/10/11 14:57:57;;;;;;;7.25;3.20;;;;;;;;;;5041857;28;20395;-86
2022/10/11 15:00:27;;;;;;;14.02;3.65;;;;;;;;;;5052919;28;20555;-86
2022/10/11 15:02:53;;;;;;;11.57;3.50;;;;;;;;;;5055768;28;20411;-87
2022/10/11 15:05:20;;;;;;;6.70;3.03;;;;;;;;;;5030619;28;20974;-85
2022/10/11 15:07:46;;;;;;;7.70;3.13;;;;;;;;;;5044893;28;20377;-86
2022/10/11 15:10:23;;;;;;;9.90;3.33;;;;;;;;;;5052789;28;20386;-85
2022/10/11 15:12:49;;;;;;;9.32;3.80;;;;;;;;;;5052952;28;20377;-86
2022/10/11 15:15:19;;;;;;;9.43;3.00;;;;;;;;;;5052870;28;20374;-86
2022/10/11 15:17:46;;;;;;;10.70;3.60;;;;;;;;;;5052882;28;20382;-86
2022/10/11 15:20:16;;;;;;;7.45;3.00;;;;;;;;;;5052567;28;20531;-86
2022/10/11 15:22:42;;;;;;;13.48;3.70;;;;;;;;;;5034849;28;20400;-86
2022/10/11 15:25:08;;;;;;;10.70;3.70;;;;;;;;;;5052647;28;20385;-87
2022/10/11 15:27:34;;;;;;;8.27;3.28;;;;;;;;;;5034744;28;20881;-89
2022/10/11 15:30:00;;;;;;;7.87;3.30;;;;;;;;;;5052846;28;20385;-89
2022/10/11 15:32:26;;;;;;;9.18;3.17;;;;;;;;;;5052466;28;20413;-87
2022/10/11 15:34:52;;;;;;;8.90;3.30;;;;;;;;;;5034569;28;20415;-88
2022/10/11 15:37:18;;;;;;;10.38;3.28;;;;;;;;;;5052626;28;20469;-92
2022/10/11 15:39:44;;;;;;;7.45;3.38;;;;;;;;;;5026547;28;20437;-90
2022/10/11 15:42:11;;;;;;;9.50;3.30;;;;;;;;;;5046359;28;20495;-90
2022/10/11 15:44:37;;;;;;;5.65;3.33;;;;;;;;;;5027785;28;20883;-90
2022/10/11 15:47:02;;;;;;;7.78;3.53;;;;;;;;;;5034669;28;20465;-89
2022/10/11 15:49:29;;;;;;;8.57;3.35;;;;;;;;;;5032269;28;20401;-91
2022/10/11 15:51:54;;;;;;;7.63;3.90;;;;;;;;;;5052356;28;20420;-90
2022/10/11 15:54:20;;;;;;;8.85;3.63;;;;;;;;;;5052182;28;20378;-90
2022/10/11 15:56:47;;;;;;;7.65;3.85;;;;;;;;;;5049369;28;20390;-90
2022/10/11 15:59:13;;;;;;;8.48;3.85;;;;;;;;;;5046384;28;20381;-90
2022/10/11 16:01:39;;;;;;;7.03;4.32;;;;;;;;;;5041829;28;20436;-89
2022/10/11 16:04:05;;;;;;;9.57;3.90;;;;;;;;;;5039388;28;20437;-90
2022/10/11 16:06:32;;;;;;;7.70;4.18;;;;;;;;;;5050091;28;20388;-90
2022/10/11 16:08:58;;;;;;;8.48;4.15;;;;;;;;;;5035122;28;20379;-91
2022/10/11 16:11:24;;;;;;;8.20;4.30;;;;;;;;;;5048371;28;20754;-91
2022/10/11 16:13:50;;;;;;;7.55;4.18;;;;;;;;;;5036970;28;20447;-90
2022/10/11 16:16:16;;;;;;;8.90;4.20;;;;;;;;;;5046860;28;20381;-89
2022/10/11 16:18:42;;;;;;;8.27;3.75;;;;;;;;;;5045976;28;20397;-91
2022/10/11 16:21:09;;;;;;;7.97;4.32;;;;;;;;;;5037703;28;20501;-90
2022/10/11 16:23:35;;;;;;;9.07;4.22;;;;;;;;;;5046986;28;20382;-90
2022/10/11 16:26:03;;;;;;;9.23;4.00;;;;;;;;;;5047644;28;20415;-89
2022/10/11 16:28:29;;;;;;;8.87;4.30;;;;;;;;;;5051903;28;20464;-89
2022/10/11 16:30:55;;;;;;;8.15;4.13;;;;;;;;;;5047899;28;20389;-89
2022/10/11 16:33:22;;;;;;;8.63;4.65;;;;;;;;;;5019097;28;20394;-90
2022/10/11 16:35:48;;;;;;;8.55;3.88;;;;;;;;;;5048305;28;20464;-89
2022/10/11 16:38:14;;;;;;;8.07;4.77;;;;;;;;;;5050247;28;20645;-91
2022/10/11 16:40:40;;;;;;;10.55;4.50;;;;;;;;;;5050527;28;20459;-90
2022/10/11 16:43:07;;;;;;;8.73;4.17;;;;;;;;;;5046904;28;20381;-90
2022/10/11 16:45:33;;;;;;;7.18;3.95;;;;;;;;;;5051743;28;20500;-87
2022/10/11 16:47:59;;;;;;;10.52;3.92;;;;;;;;;;5051653;28;20467;-87
2022/10/11 16:50:25;;;;;;;8.60;4.10;;;;;;;;;;5051706;28;20377;-89
2022/10/11 16:52:55;;;;;;;8.80;4.65;;;;;;;;;;5045073;28;20474;-87
2022/10/11 16:55:21;;;;;;;6.93;4.03;;;;;;;;;;5036226;28;20910;-88
2022/10/11 16:57:47;;;;;;;7.50;4.57;;;;;;;;;;5039474;28;20390;-88
2022/10/11 17:00:14;;;;;;;9.23;4.53;;;;;;;;;;5044474;28;20415;-87
2022/10/11 17:02:40;;;;;;;7.60;4.20;;;;;;;;;;5041996;28;20387;-88
2022/10/11 17:05:06;;;;;;;10.77;4.40;;;;;;;;;;5039321;28;20435;-88
2022/10/11 17:07:32;;;;;;;8.45;4.20;;;;;;;;;;5045105;28;20937;-88
2022/10/11 17:09:59;;;;;;;7.07;4.35;;;;;;;;;;5036803;28;20396;-88
2022/10/11 17:12:26;;;;;;;9.48;4.40;;;;;;;;;;5043017;28;20391;-88
2022/10/11 17:14:52;;;;;;;9.75;4.60;;;;;;;;;;5028892;28;20379;-87
2022/10/11 17:17:18;;;;;;;10.53;4.97;;;;;;;;;;5044173;28;20453;-88
2022/10/11 17:19:46;;;;;;;9.25;4.57;;;;;;;;;;5055045;28;20380;-86
2022/10/11 17:22:13;;;;;;;7.50;4.63;;;;;;;;;;5043993;28;20402;-87
2022/10/11 17:24:39;;;;;;;8.43;4.00;;;;;;;;;;5053857;28;20382;-88
2022/10/11 17:27:06;;;;;;;9.85;4.40;;;;;;;;;;5043953;28;20398;-88
2022/10/11 17:29:32;;;;;;;7.80;4.47;;;;;;;;;;5048750;28;20390;-87
2022/10/11 17:31:58;;;;;;;7.53;4.45;;;;;;;;;;5059947;28;20417;-89
2022/10/11 17:34:24;;;;;;;7.57;4.60;;;;;;;;;;5051285;28;20419;-88
2022/10/11 17:36:50;;;;;;;9.15;5.13;;;;;;;;;;5032915;28;20395;-88
2022/10/11 17:39:17;;;;;;;11.63;5.05;;;;;;;;;;5039072;28;20379;-88
2022/10/11 17:41:44;;;;;;;10.32;5.57;;;;;;;;;;5037407;28;20399;-88
2022/10/11 17:44:10;;;;;;;10.15;5.10;;;;;;;;;;5043278;28;20397;-88
2022/10/11 17:46:36;;;;;;;10.73;5.45;;;;;;;;;;5053239;28;20408;-87
2022/10/11 17:49:05;;;;;;;7.15;4.35;;;;;;;;;;5024235;28;20441;-88
2022/10/11 17:51:32;;;;;;;6.97;4.72;;;;;;;;;;5036992;28;20882;-88
2022/10/11 17:53:58;;;;;;;7.05;4.72;;;;;;;;;;5042287;28;20450;-88
2022/10/11 17:56:25;;;;;;;7.13;4.83;;;;;;;;;;5037026;28;20389;-87
2022/10/11 17:58:52;;;;;;;10.38;4.90;;;;;;;;;;5054352;28;20419;-88
2022/10/11 18:01:19;;;;;;;8.80;5.22;;;;;;;;;;5053955;28;20413;-87
2022/10/11 18:03:56;;;;;;;6.85;4.60;;;;;;;;;;5036658;28;20378;-87
2022/10/11 18:06:23;;;;;;;8.07;5.10;;;;;;;;;;5042913;28;20373;-87
2022/10/11 18:08:49;;;;;;;11.93;6.00;;;;;;;;;;5036614;28;20390;-87
2022/10/11 18:11:16;;;;;;;11.90;5.47;;;;;;;;;;5042457;28;20379;-87
2022/10/11 18:13:45;;;;;;;8.07;5.32;;;;;;;;;;5054224;28;20392;-87
2022/10/11 18:16:12;;;;;;;12.65;5.70;;;;;;;;;;5047136;28;20382;-88
2022/10/11 18:18:38;;;;;;;11.25;6.82;;;;;;;;;;5049081;28;20895;-88
2022/10/11 18:21:04;;;;;;;11.20;6.97;;;;;;;;;;5046550;28;20413;-87
2022/10/11 18:23:30;;;;;;;11.93;6.40;;;;;;;;;;5043139;28;20859;-88
2022/10/11 18:25:56;;;;;;;10.45;6.80;;;;;;;;;;5044176;28;20374;-87
2022/10/11 18:28:22;;;;;;;12.65;9.45;;;;;;;;;;5053485;28;20897;-88
2022/10/11 18:30:48;;;;;;;10.82;7.90;;;;;;;;;;5053807;28;20472;-88
2022/10/11 18:33:15;;;;;;;14.40;8.93;;;;;;;;;;5053429;28;20518;-87
2022/10/11 18:35:41;;;;;;;13.32;9.05;;;;;;;;;;5035669;28;20448;-88
2022/10/11 18:38:08;;;;;;;11.40;8.30;;;;;;;;;;5053684;28;20882;-87
2022/10/11 18:40:38;;;;;;;9.98;7.82;;;;;;;;;;5053439;28;20413;-87
2022/10/11 18:43:04;;;;;;;10.05;7.47;;;;;;;;;;5035698;28;20385;-87
2022/10/11 18:45:30;;;;;;;9.53;7.13;;;;;;;;;;5035600;28;20439;-87
2022/10/11 18:47:56;;;;;;;13.50;7.35;;;;;;;;;;5035890;28;20385;-87